Time;durP1;ratioP1;P1;durP2;ratioP2;P2;SDS_P1;SDS_P2;PMS_P1;PMS_P2;Temp;Humidity;BMP_temperature;BMP_pressure;BME280_temperature;BME280_humidity;BME280_pressure;Samples;Min_cycle;Max_cycle;Signal;HPM_P1;HPM_P2
2020/12/02 00:00:46;;;;;;;56.88;19.88;;;-5.40;99.90;;;;;;4259737;27;20543;-44
2020/12/02 00:03:01;;;;;;;58.22;20.95;;;-5.40;99.90;;;;;;4257614;27;20080;-44
2020/12/02 00:05:10;;;;;;;60.20;19.98;;;-5.40;99.90;;;;;;4245805;27;20031;-48
2020/12/02 00:07:12;;;;;;;64.95;21.67;;;-5.40;99.90;;;;;;4257804;27;20023;-42
2020/12/02 00:09:16;;;;;;;58.22;22.30;;;-5.40;99.90;;;;;;4258109;27;20050;-45
2020/12/02 00:11:17;;;;;;;56.10;20.00;;;-5.40;99.90;;;;;;4257225;27;20031;-46
2020/12/02 00:13:28;;;;;;;54.72;20.55;;;-5.40;99.90;;;;;;4258852;27;20038;-46
2020/12/02 00:15:29;;;;;;;61.78;20.58;;;-5.30;99.90;;;;;;4257480;27;20031;-45
2020/12/02 00:17:31;;;;;;;56.22;21.17;;;-5.30;99.90;;;;;;4257471;27;20043;-50
2020/12/02 00:19:32;;;;;;;58.65;21.17;;;-5.30;99.90;;;;;;4258107;27;20018;-43
2020/12/02 00:21:33;;;;;;;60.25;21.73;;;-5.30;99.90;;;;;;4257299;27;20506;-48
2020/12/02 00:23:35;;;;;;;62.47;21.88;;;-5.30;99.90;;;;;;4258931;27;20111;-45
2020/12/02 00:25:36;;;;;;;66.25;22.38;;;-5.30;99.90;;;;;;4256743;27;20034;-43
2020/12/02 00:27:37;;;;;;;57.50;20.40;;;-5.30;99.90;;;;;;4259459;27;20507;-40
2020/12/02 00:29:38;;;;;;;62.38;21.17;;;-5.20;99.90;;;;;;4257736;27;20625;-47
2020/12/02 00:31:39;;;;;;;64.85;21.83;;;-5.30;99.90;;;;;;4259739;27;20100;-49
2020/12/02 00:33:41;;;;;;;58.10;20.92;;;-5.20;99.90;;;;;;4256839;27;20091;-43
2020/12/02 00:35:43;;;;;;;55.50;20.10;;;-5.20;99.90;;;;;;4258237;27;20068;-42
2020/12/02 00:37:48;;;;;;;60.72;20.52;;;-5.20;99.90;;;;;;4257145;27;20087;-46
2020/12/02 00:39:49;;;;;;;56.83;20.27;;;-5.30;99.90;;;;;;4258511;27;20027;-46
2020/12/02 00:41:50;;;;;;;112.78;22.70;;;-5.30;99.90;;;;;;4257305;27;20038;-42
2020/12/02 00:43:51;;;;;;;70.90;21.05;;;-5.30;99.90;;;;;;4258010;27;20079;-45
2020/12/02 00:46:02;;;;;;;57.67;19.88;;;-5.30;99.90;;;;;;4257343;27;20027;-44
2020/12/02 00:48:04;;;;;;;;;;;-5.30;99.90;;;;;;4258147;27;20038;-43
2020/12/02 00:50:09;;;;;;;47.50;17.35;;;-5.30;99.90;;;;;;4257118;27;19963;-43
2020/12/02 00:52:10;;;;;;;52.85;18.92;;;-5.30;99.90;;;;;;4251354;27;20116;-45
2020/12/02 00:54:11;;;;;;;60.25;20.85;;;-5.40;99.90;;;;;;4257751;27;20431;-48
2020/12/02 00:56:14;;;;;;;57.67;21.35;;;-5.40;99.90;;;;;;4257246;27;20027;-42
2020/12/02 00:58:47;;;;;;;54.17;19.63;;;-5.40;99.90;;;;;;4258248;27;20055;-45
2020/12/02 01:00:51;;;;;;;58.22;18.45;;;-5.40;99.90;;;;;;4257989;27;20420;-50
2020/12/02 01:03:02;;;;;;;77.18;19.15;;;-5.40;99.90;;;;;;4257688;27;21028;-45
2020/12/02 01:05:14;;;;;;;245.98;29.42;;;-5.40;99.90;;;;;;4256673;27;20042;-41
2020/12/02 01:07:16;;;;;;;102.90;20.70;;;-5.50;99.90;;;;;;4257105;27;20034;-48
2020/12/02 01:09:18;;;;;;;58.38;20.08;;;-5.50;99.90;;;;;;4257021;27;20043;-45
2020/12/02 01:11:22;;;;;;;56.13;21.05;;;-5.50;99.90;;;;;;4257823;27;20107;-43
2020/12/02 01:13:24;;;;;;;54.95;20.65;;;-5.50;99.90;;;;;;4256648;27;20103;-41
2020/12/02 01:15:25;;;;;;;54.40;19.75;;;-5.50;99.90;;;;;;4257935;27;20095;-44
2020/12/02 01:17:26;;;;;;;59.63;20.98;;;-5.50;99.90;;;;;;4256199;27;20555;-46
2020/12/02 01:19:34;;;;;;;63.72;22.48;;;-5.50;99.90;;;;;;4258271;27;20035;-43
2020/12/02 01:21:44;;;;;;;59.80;20.17;;;-5.60;99.90;;;;;;4256019;27;20488;-44
2020/12/02 01:23:52;;;;;;;52.38;18.58;;;-5.60;99.90;;;;;;4257082;27;20454;-44
2020/12/02 01:25:54;;;;;;;53.42;20.10;;;-5.60;99.90;;;;;;4255850;27;20039;-45
2020/12/02 01:27:57;;;;;;;52.05;20.25;;;-5.60;99.90;;;;;;4257559;27;20030;-43
2020/12/02 01:29:59;;;;;;;58.17;19.98;;;-5.60;99.90;;;;;;4256491;27;20051;-43
2020/12/02 01:32:01;;;;;;;49.83;18.67;;;-5.60;99.90;;;;;;4258176;27;20046;-46
2020/12/02 01:34:04;;;;;;;53.67;19.27;;;-5.60;99.90;;;;;;4256023;27;20047;-47
2020/12/02 01:36:08;;;;;;;53.85;19.67;;;-5.60;99.90;;;;;;4257568;27;20042;-45
2020/12/02 01:38:12;;;;;;;51.70;18.60;;;-5.60;99.90;;;;;;4255518;27;20034;-44
2020/12/02 01:40:18;;;;;;;54.03;19.23;;;-5.60;99.90;;;;;;4257778;27;20432;-42
2020/12/02 01:42:19;;;;;;;47.17;19.13;;;-5.60;99.90;;;;;;4255556;27;20099;-41
2020/12/02 01:44:21;;;;;;;51.40;19.15;;;-5.60;99.90;;;;;;4256867;27;20436;-47
2020/12/02 01:46:46;;;;;;;51.60;19.70;;;-5.60;99.90;;;;;;4255796;27;20080;-44
2020/12/02 01:49:07;;;;;;;55.05;19.27;;;-5.60;99.90;;;;;;4257202;27;20043;-42
2020/12/02 01:51:17;;;;;;;53.40;18.88;;;-5.70;99.90;;;;;;4255196;27;20038;-41
2020/12/02 01:53:32;;;;;;;46.00;18.35;;;-5.80;99.90;;;;;;4257512;27;20075;-44
2020/12/02 01:55:51;;;;;;;53.55;19.98;;;-5.80;99.90;;;;;;4255746;27;20091;-41
2020/12/02 01:58:00;;;;;;;56.05;19.63;;;-5.80;99.90;;;;;;4257760;27;20462;-47
2020/12/02 02:00:05;;;;;;;64.00;20.60;;;-5.90;99.90;;;;;;4256078;27;20083;-45
2020/12/02 02:02:24;;;;;;;64.60;20.52;;;-5.80;99.90;;;;;;4258126;27;20018;-46
2020/12/02 02:04:37;;;;;;;63.03;21.02;;;-5.80;99.90;;;;;;4254954;27;20034;-46
2020/12/02 02:07:08;;;;;;;60.08;20.77;;;-5.80;99.90;;;;;;4253825;27;20072;-46
2020/12/02 02:09:10;;;;;;;59.38;20.15;;;-5.70;99.90;;;;;;4255155;27;20547;-45
2020/12/02 02:11:17;;;;;;;54.03;18.23;;;-5.70;99.90;;;;;;4257419;27;20023;-43
2020/12/02 02:13:37;;;;;;;59.05;19.65;;;-5.80;99.90;;;;;;4255108;27;20031;-47
2020/12/02 02:15:52;;;;;;;62.47;19.58;;;-5.80;99.90;;;;;;4257631;27;20067;-42
2020/12/02 02:17:59;;;;;;;57.95;21.80;;;-5.80;99.90;;;;;;4255728;27;20075;-46
2020/12/02 02:20:00;;;;;;;58.53;19.92;;;-5.80;99.90;;;;;;4257340;27;20019;-41
2020/12/02 02:22:01;;;;;;;58.03;20.17;;;-5.70;99.90;;;;;;4255498;27;20551;-45
2020/12/02 02:24:03;;;;;;;67.97;20.00;;;-5.70;99.90;;;;;;4256549;27;20035;-43
2020/12/02 02:26:17;;;;;;;52.20;20.15;;;-5.70;99.90;;;;;;4254006;27;20424;-46
2020/12/02 02:28:18;;;;;;;59.38;19.02;;;-5.70;99.90;;;;;;4256737;27;20034;-44
2020/12/02 02:30:19;;;;;;;50.72;18.92;;;-5.70;99.90;;;;;;4255624;27;20119;-44
2020/12/02 02:32:24;;;;;;;53.42;18.55;;;-5.70;99.90;;;;;;4256732;27;21059;-49
2020/12/02 02:34:28;;;;;;;61.85;20.23;;;-5.70;99.90;;;;;;4255349;27;20086;-47
2020/12/02 02:36:30;;;;;;;64.68;20.45;;;-5.70;99.90;;;;;;4256314;27;20046;-42
2020/12/02 02:38:31;;;;;;;56.38;19.80;;;-5.70;99.90;;;;;;4255191;27;20630;-48
2020/12/02 02:40:32;;;;;;;52.17;19.60;;;-5.80;99.90;;;;;;4256776;27;20030;-48
2020/12/02 02:42:36;;;;;;;51.63;19.40;;;-5.80;99.90;;;;;;4255913;27;20083;-43
2020/12/02 02:44:37;;;;;;;58.00;19.65;;;-5.80;99.90;;;;;;4256176;27;20030;-41
2020/12/02 02:46:39;;;;;;;55.45;19.00;;;-5.80;99.90;;;;;;4255802;27;20095;-48
2020/12/02 02:48:41;;;;;;;48.85;17.70;;;-5.80;99.90;;;;;;4256177;27;20795;-46
2020/12/02 02:50:42;;;;;;;56.78;18.67;;;-5.80;99.90;;;;;;4256047;27;20043;-46
2020/12/02 02:52:44;;;;;;;79.82;19.60;;;-5.90;99.90;;;;;;4254957;27;20522;-42
2020/12/02 02:54:46;;;;;;;46.55;15.93;;;-6.00;99.90;;;;;;4257155;27;20022;-46
2020/12/02 02:56:47;;;;;;;55.03;18.95;;;-6.00;99.90;;;;;;4255114;27;20087;-42
2020/12/02 02:58:48;;;;;;;47.20;17.60;;;-6.00;99.90;;;;;;4257040;27;20147;-45
2020/12/02 03:00:49;;;;;;;53.47;18.58;;;-6.00;99.90;;;;;;4255422;27;20039;-40
2020/12/02 03:02:51;;;;;;;56.20;18.23;;;-6.00;99.90;;;;;;4256668;27;20050;-43
2020/12/02 03:04:52;;;;;;;48.40;18.25;;;-6.00;99.90;;;;;;4255062;27;20566;-43
2020/12/02 03:06:53;;;;;;;76.30;16.67;;;-6.00;99.90;;;;;;4257141;27;20034;-48
2020/12/02 03:08:55;;;;;;;65.72;18.90;;;-6.00;99.90;;;;;;4254936;27;20042;-41
2020/12/02 03:10:58;;;;;;;73.57;19.27;;;-6.00;99.90;;;;;;4256190;27;20095;-45
2020/12/02 03:13:05;;;;;;;52.13;17.88;;;-6.10;99.90;;;;;;4254507;27;20918;-42
2020/12/02 03:15:08;;;;;;;56.03;19.10;;;-6.10;99.90;;;;;;4256552;27;20445;-43
2020/12/02 03:17:14;;;;;;;109.72;21.83;;;-6.10;99.90;;;;;;4256175;27;20022;-40
2020/12/02 03:19:24;;;;;;;79.22;19.67;;;-6.10;99.90;;;;;;4255912;27;20022;-41
2020/12/02 03:21:26;;;;;;;70.77;21.80;;;-6.20;99.90;;;;;;4255036;27;20080;-44
2020/12/02 03:23:28;;;;;;;61.38;20.23;;;-6.20;99.90;;;;;;4255718;27;20258;-43
2020/12/02 03:25:32;;;;;;;96.68;20.63;;;-6.20;99.90;;;;;;4256477;27;20087;-46
2020/12/02 03:27:33;;;;;;;70.15;19.42;;;-6.20;99.90;;;;;;4254816;27;20440;-45
2020/12/02 03:29:34;;;;;;;56.80;18.40;;;-6.30;99.90;;;;;;4256460;27;20047;-41
2020/12/02 03:31:36;;;;;;;49.03;17.67;;;-6.30;99.90;;;;;;4254775;27;20043;-43
2020/12/02 03:33:38;;;;;;;92.55;22.92;;;-6.30;99.90;;;;;;4255636;27;20062;-46
2020/12/02 03:35:40;;;;;;;52.30;17.98;;;-6.30;99.90;;;;;;4255102;27;20470;-48
2020/12/02 03:37:41;;;;;;;119.85;21.27;;;-6.20;99.90;;;;;;4256043;27;20031;-42
2020/12/02 03:39:42;;;;;;;61.72;17.83;;;-6.30;99.90;;;;;;4254903;27;20039;-42
2020/12/02 03:41:43;;;;;;;102.07;22.25;;;-6.30;99.90;;;;;;4256510;27;20030;-43
2020/12/02 03:43:45;;;;;;;92.25;22.13;;;-6.40;99.90;;;;;;4255544;27;20034;-44
2020/12/02 03:45:47;;;;;;;90.43;20.35;;;-6.40;99.90;;;;;;4256830;27;20154;-45
2020/12/02 03:47:48;;;;;;;68.00;18.92;;;-6.40;99.90;;;;;;4257564;27;20446;-46
2020/12/02 03:49:50;;;;;;;62.58;21.13;;;-6.40;99.90;;;;;;4257994;27;20103;-47
2020/12/02 03:51:51;;;;;;;62.25;21.00;;;-6.40;99.90;;;;;;4257871;27;20052;-45
2020/12/02 03:53:52;;;;;;;61.67;19.50;;;-6.30;99.90;;;;;;4256943;27;20197;-46
2020/12/02 03:55:53;;;;;;;59.72;20.23;;;-6.30;99.90;;;;;;4258753;27;20023;-44
2020/12/02 03:57:54;;;;;;;57.05;20.15;;;-6.30;99.90;;;;;;4258380;27;20052;-43
2020/12/02 03:59:55;;;;;;;60.70;20.70;;;-6.30;99.90;;;;;;4258820;27;20035;-45
2020/12/02 04:01:56;;;;;;;68.47;18.67;;;-6.30;99.90;;;;;;4258140;27;20368;-46
2020/12/02 04:03:58;;;;;;;63.42;18.52;;;-6.30;99.90;;;;;;4259544;27;20035;-46
2020/12/02 04:05:59;;;;;;;181.95;26.00;;;-6.30;99.90;;;;;;4257732;27;20035;-44
2020/12/02 04:08:02;;;;;;;69.65;19.92;;;-6.30;99.90;;;;;;4259523;27;20091;-44
2020/12/02 04:10:04;;;;;;;65.53;21.45;;;-6.30;99.90;;;;;;4257593;27;20056;-41
2020/12/02 04:12:05;;;;;;;83.07;19.70;;;-6.30;99.90;;;;;;4258564;27;20035;-41
2020/12/02 04:14:06;;;;;;;75.40;20.25;;;-6.30;99.90;;;;;;4257750;27;20075;-45
2020/12/02 04:16:09;;;;;;;59.38;19.30;;;-6.30;99.90;;;;;;4258575;27;20470;-45
2020/12/02 04:18:10;;;;;;;107.53;18.70;;;-6.30;99.90;;;;;;4257829;27;20039;-46
2020/12/02 04:20:11;;;;;;;73.25;20.55;;;-6.30;99.90;;;;;;4258407;27;20035;-44
2020/12/02 04:22:12;;;;;;;117.07;23.77;;;-6.20;99.90;;;;;;4257216;27;20084;-42
2020/12/02 04:24:13;;;;;;;65.93;20.85;;;-6.20;99.90;;;;;;4257357;27;20047;-44
2020/12/02 04:26:14;;;;;;;179.00;24.50;;;-6.20;99.90;;;;;;4257765;27;20022;-46
2020/12/02 04:28:16;;;;;;;95.03;24.92;;;-6.20;99.90;;;;;;4257165;27;20035;-42
2020/12/02 04:30:18;;;;;;;104.53;22.55;;;-6.20;99.90;;;;;;4258378;27;20200;-44
2020/12/02 04:32:19;;;;;;;100.65;24.50;;;-6.20;99.90;;;;;;4257148;27;20083;-46
2020/12/02 04:34:20;;;;;;;80.85;23.02;;;-6.30;99.90;;;;;;4258811;27;20018;-46
2020/12/02 04:36:22;;;;;;;121.68;23.13;;;-6.30;99.90;;;;;;4257150;27;20035;-46
2020/12/02 04:38:23;;;;;;;83.22;23.58;;;-6.20;99.90;;;;;;4258036;27;20054;-43
2020/12/02 04:40:36;;;;;;;138.88;26.42;;;-6.30;99.90;;;;;;4257057;27;20412;-45
2020/12/02 04:42:42;;;;;;;116.32;23.45;;;-6.30;99.90;;;;;;4258809;27;20023;-42
2020/12/02 04:44:48;;;;;;;66.68;21.48;;;-6.30;99.90;;;;;;4257090;27;20466;-40
2020/12/02 04:46:54;;;;;;;63.40;22.65;;;-6.30;99.90;;;;;;4258683;27;20023;-44
2020/12/02 04:49:18;;;;;;;71.63;20.73;;;-6.40;99.90;;;;;;4256713;27;20030;-44
2020/12/02 04:51:22;;;;;;;100.70;22.70;;;-6.40;99.90;;;;;;4258934;27;20142;-46
2020/12/02 04:53:24;;;;;;;59.53;20.23;;;-6.40;99.90;;;;;;4255913;27;20451;-43
2020/12/02 04:55:25;;;;;;;65.80;19.77;;;-6.40;99.90;;;;;;4258090;27;20083;-46
2020/12/02 04:57:26;;;;;;;64.43;20.65;;;-6.40;99.90;;;;;;4256477;27;20030;-42
2020/12/02 04:59:42;;;;;;;64.30;20.52;;;-6.30;99.90;;;;;;4258426;27;20088;-49
2020/12/02 05:01:50;;;;;;;93.82;21.38;;;-6.30;99.90;;;;;;4256608;27;20031;-49
2020/12/02 05:04:14;;;;;;;67.68;19.38;;;-6.40;99.90;;;;;;4258403;27;20393;-47
2020/12/02 05:06:39;;;;;;;106.53;21.15;;;-6.50;99.90;;;;;;4256259;27;20077;-48
2020/12/02 05:08:40;;;;;;;96.85;21.02;;;-6.50;99.90;;;;;;4257948;27;20042;-47
2020/12/02 05:10:41;;;;;;;76.47;18.73;;;-6.60;99.90;;;;;;4256291;27;20058;-46
2020/12/02 05:12:45;;;;;;;62.35;19.45;;;-6.60;99.90;;;;;;4258360;27;20034;-43
2020/12/02 05:14:47;;;;;;;71.63;18.45;;;-6.70;99.90;;;;;;4256389;27;20095;-44
2020/12/02 05:17:28;;;;;;;58.28;18.58;;;-6.70;99.90;;;;;;4258045;27;20030;-42
2020/12/02 05:19:29;;;;;;;53.35;16.73;;;-6.70;99.90;;;;;;4256499;27;20079;-44
2020/12/02 05:21:40;;;;;;;87.10;18.70;;;-6.70;99.90;;;;;;4258008;27;20107;-43
2020/12/02 05:23:41;;;;;;;;;;;-6.70;99.90;;;;;;4257044;27;20019;-44
2020/12/02 05:25:41;;;;;;;;;;;-6.70;99.90;;;;;;4258630;27;20401;-45
2020/12/02 05:27:47;;;;;;;51.35;16.02;;;-6.80;99.90;;;;;;4255527;27;19911;-46
2020/12/02 05:29:54;;;;;;;54.13;19.05;;;-6.80;99.90;;;;;;4257167;27;20072;-47
2020/12/02 05:32:06;;;;;;;59.83;18.50;;;-6.80;99.90;;;;;;4256349;27;20051;-48
2020/12/02 05:34:19;;;;;;;58.65;19.67;;;-6.80;99.90;;;;;;4257140;27;20111;-42
2020/12/02 05:36:32;;;;;;;61.65;17.77;;;-6.80;99.90;;;;;;4253465;27;20511;-45
2020/12/02 05:38:55;;;;;;;78.22;17.33;;;-6.80;99.90;;;;;;4239505;27;20035;-46
2020/12/02 05:40:58;;;;;;;66.30;18.65;;;-6.90;99.90;;;;;;4238480;27;20028;-42
2020/12/02 05:43:27;;;;;;;77.38;18.83;;;-6.90;99.90;;;;;;4238268;27;20039;-42
2020/12/02 05:45:41;;;;;;;60.17;17.23;;;-6.90;99.90;;;;;;4238204;27;20035;-45
2020/12/02 05:47:49;;;;;;;70.10;17.48;;;-6.90;99.90;;;;;;4240264;27;20087;-46
2020/12/02 05:49:55;;;;;;;72.65;17.92;;;-6.90;99.90;;;;;;4238817;27;20039;-51
2020/12/02 05:51:56;;;;;;;67.13;18.20;;;-7.00;99.90;;;;;;4239717;27;20027;-50
2020/12/02 05:54:07;;;;;;;65.75;18.08;;;-7.00;99.90;;;;;;4237970;27;20035;-46
2020/12/02 05:56:09;;;;;;;;;;;-7.00;99.90;;;;;;4240998;27;20452;-44
2020/12/02 05:58:26;;;;;;;46.75;16.00;;;-7.00;99.90;;;;;;4237194;27;19979;-43
2020/12/02 06:00:29;;;;;;;63.40;17.58;;;-7.00;99.90;;;;;;4240361;27;20035;-44
2020/12/02 06:02:31;;;;;;;80.75;17.65;;;-7.00;99.90;;;;;;4238601;27;20501;-48
2020/12/02 06:04:35;;;;;;;73.80;20.13;;;-7.00;99.90;;;;;;4237906;27;20043;-46
2020/12/02 06:06:38;;;;;;;63.90;19.33;;;-7.10;99.90;;;;;;4239137;27;20027;-54
2020/12/02 06:08:47;;;;;;;69.07;20.02;;;-7.10;99.90;;;;;;4250697;27;20091;-47
2020/12/02 06:10:48;;;;;;;78.57;20.38;;;-7.20;99.90;;;;;;4254873;27;20482;-46
2020/12/02 06:12:51;;;;;;;65.55;19.13;;;-7.10;99.90;;;;;;4256772;27;20030;-42
2020/12/02 06:14:52;;;;;;;57.33;19.67;;;-7.10;99.90;;;;;;4255126;27;20083;-48
2020/12/02 06:16:54;;;;;;;59.35;18.90;;;-7.10;99.90;;;;;;4254960;27;20099;-44
2020/12/02 06:19:23;;;;;;;53.55;20.25;;;-7.00;99.90;;;;;;4255389;27;20083;-45
2020/12/02 06:21:44;;;;;;;60.95;19.23;;;-6.90;99.90;;;;;;4243001;27;20046;-44
2020/12/02 06:23:50;;;;;;;;;;;-6.90;99.90;;;;;;4255167;27;20039;-47
2020/12/02 06:25:55;;;;;;;82.97;20.85;;;-6.90;99.90;;;;;;4256172;27;20398;-41
2020/12/02 06:27:59;;;;;;;61.28;19.92;;;-6.90;99.90;;;;;;4253908;27;20035;-47
2020/12/02 06:30:12;;;;;;;58.55;18.23;;;-6.90;99.90;;;;;;4256692;27;20031;-42
2020/12/02 06:32:20;;;;;;;58.08;18.33;;;-6.90;99.90;;;;;;4255731;27;20609;-44
2020/12/02 06:34:24;;;;;;;64.38;18.45;;;-6.80;99.90;;;;;;4256669;27;20371;-44
2020/12/02 06:36:27;;;;;;;49.97;17.90;;;-6.70;99.90;;;;;;4252864;27;20277;-44
2020/12/02 06:38:29;;;;;;;66.72;20.52;;;-6.70;99.90;;;;;;4256475;27;20030;-43
2020/12/02 06:40:30;;;;;;;57.20;19.38;;;-6.70;99.90;;;;;;4255164;27;20482;-43
2020/12/02 06:42:34;;;;;;;61.78;19.92;;;-6.70;99.90;;;;;;4255211;27;20079;-50
2020/12/02 06:44:41;;;;;;;55.25;20.55;;;-6.60;99.90;;;;;;4255097;27;20075;-41
2020/12/02 06:46:54;;;;;;;57.90;19.73;;;-6.50;99.90;;;;;;4255814;27;20027;-47
2020/12/02 06:48:55;;;;;;;50.85;19.13;;;-6.50;99.90;;;;;;4255925;27;20022;-45
2020/12/02 06:50:59;;;;;;;65.18;20.35;;;-6.40;99.90;;;;;;4254405;27;20127;-44
2020/12/02 06:53:17;;;;;;;53.85;20.40;;;-6.40;99.90;;;;;;4255711;27;20032;-45
2020/12/02 06:55:22;;;;;;;62.20;20.65;;;-6.50;99.90;;;;;;4255027;27;20432;-45
2020/12/02 06:57:26;;;;;;;63.75;20.20;;;-6.50;99.90;;;;;;4255814;27;20035;-51
2020/12/02 06:59:27;;;;;;;103.60;23.25;;;-6.60;99.90;;;;;;4252956;27;20478;-45
2020/12/02 07:01:30;;;;;;;61.53;19.30;;;-6.60;99.90;;;;;;4256265;27;20027;-46
2020/12/02 07:03:44;;;;;;;65.03;20.15;;;-6.60;99.90;;;;;;4255016;27;20023;-47
2020/12/02 07:05:45;;;;;;;68.63;21.00;;;-6.60;99.90;;;;;;4256545;27;20412;-45
2020/12/02 07:07:46;;;;;;;69.85;20.98;;;-6.50;99.90;;;;;;4255328;27;20506;-46
2020/12/02 07:09:48;;;;;;;59.20;20.75;;;-6.50;99.90;;;;;;4256910;27;20043;-44
2020/12/02 07:12:03;;;;;;;62.63;20.27;;;-6.50;99.90;;;;;;4254630;27;20040;-49
2020/12/02 07:14:21;;;;;;;58.70;20.85;;;-6.50;99.90;;;;;;4256490;27;20042;-43
2020/12/02 07:16:33;;;;;;;54.33;18.55;;;-6.50;99.90;;;;;;4237521;27;20071;-49
2020/12/02 07:18:34;;;;;;;64.85;20.52;;;-6.50;99.90;;;;;;4238530;27;20068;-46
2020/12/02 07:20:35;;;;;;;89.28;22.38;;;-6.60;99.90;;;;;;4240136;27;20031;-47
2020/12/02 07:22:46;;;;;;;61.40;21.20;;;-6.60;99.90;;;;;;4242713;27;20115;-45
2020/12/02 07:24:49;;;;;;;84.13;21.67;;;-6.60;99.90;;;;;;4240504;27;20095;-45
2020/12/02 07:26:51;;;;;;;61.67;20.70;;;-6.60;99.90;;;;;;4242597;27;20027;-44
2020/12/02 07:29:00;;;;;;;68.05;23.85;;;-6.60;99.90;;;;;;4240115;27;20092;-46
2020/12/02 07:31:14;;;;;;;58.22;21.05;;;-6.60;99.90;;;;;;4242390;27;20039;-41
2020/12/02 07:33:25;;;;;;;58.80;20.45;;;-6.60;99.90;;;;;;4241151;27;20039;-45
2020/12/02 07:35:26;;;;;;;68.80;21.75;;;-6.50;99.90;;;;;;4242019;27;20039;-46
2020/12/02 07:37:27;;;;;;;63.95;22.75;;;-6.50;99.90;;;;;;4240289;27;20515;-45
2020/12/02 07:39:30;;;;;;;80.47;24.17;;;-6.50;99.90;;;;;;4256217;27;20043;-45
2020/12/02 07:41:32;;;;;;;64.03;20.40;;;-6.40;99.90;;;;;;4257109;27;20066;-47
2020/12/02 07:43:33;;;;;;;57.05;19.55;;;-6.50;99.90;;;;;;4258167;27;20087;-44
2020/12/02 07:45:35;;;;;;;70.97;21.92;;;-6.50;99.90;;;;;;4257497;27;20133;-49
2020/12/02 07:47:37;;;;;;;62.88;22.08;;;-6.50;99.90;;;;;;4257848;27;20027;-45
2020/12/02 07:49:42;;;;;;;72.55;22.90;;;-6.50;99.90;;;;;;4257435;27;20042;-46
2020/12/02 07:51:52;;;;;;;86.57;21.52;;;-6.50;99.90;;;;;;4256876;27;20099;-46
2020/12/02 07:54:00;;;;;;;66.43;21.25;;;-6.40;99.90;;;;;;4257105;27;20026;-44
2020/12/02 07:56:04;;;;;;;68.95;20.48;;;-6.40;99.90;;;;;;4256144;27;20034;-47
2020/12/02 07:58:05;;;;;;;59.70;19.35;;;-6.40;99.90;;;;;;4258001;27;20099;-55
2020/12/02 08:00:12;;;;;;;55.50;19.15;;;-6.40;99.90;;;;;;4255571;27;20050;-41
2020/12/02 08:02:19;;;;;;;79.25;24.67;;;-6.40;99.90;;;;;;4257950;27;20177;-41
2020/12/02 08:04:20;;;;;;;70.10;23.58;;;-6.40;99.90;;;;;;4253891;27;20911;-44
2020/12/02 08:06:46;;;;;;;54.92;19.27;;;-6.40;99.90;;;;;;4257882;27;20543;-44
2020/12/02 08:08:47;;;;;;;67.82;20.92;;;-6.40;99.90;;;;;;4240292;27;20080;-48
2020/12/02 08:10:48;;;;;;;66.50;18.35;;;-6.40;99.90;;;;;;4254870;27;20183;-42
2020/12/02 08:12:49;;;;;;;58.10;18.05;;;-6.40;99.90;;;;;;4256236;27;20027;-40
2020/12/02 08:15:09;;;;;;;60.67;18.60;;;-6.50;99.90;;;;;;4258691;27;20505;-41
2020/12/02 08:17:13;;;;;;;50.97;15.75;;;-6.50;99.90;;;;;;4256341;27;20088;-41
2020/12/02 08:19:28;;;;;;;47.22;17.83;;;-6.60;99.90;;;;;;4258680;27;20080;-39
2020/12/02 08:21:30;;;;;;;55.25;18.92;;;-6.60;99.90;;;;;;4256762;27;20541;-56
2020/12/02 08:23:35;;;;;;;56.55;17.73;;;-6.60;99.90;;;;;;4259071;27;20080;-39
2020/12/02 08:25:47;;;;;;;53.17;19.80;;;-6.60;99.90;;;;;;4257628;27;20048;-38
2020/12/02 08:27:56;;;;;;;54.55;18.48;;;-6.60;99.90;;;;;;4258650;27;20079;-39
2020/12/02 08:30:06;;;;;;;62.15;19.95;;;-6.60;99.90;;;;;;4257162;27;20035;-42
2020/12/02 08:32:34;;;;;;;54.47;17.67;;;-6.50;99.90;;;;;;4257584;27;20042;-48
2020/12/02 08:34:37;;;;;;;59.22;19.80;;;-6.40;99.90;;;;;;4256687;27;20052;-47
2020/12/02 08:36:46;;;;;;;56.40;16.95;;;-6.50;99.90;;;;;;4256716;27;20723;-42
2020/12/02 08:38:52;;;;;;;51.45;17.63;;;-6.40;99.90;;;;;;4256431;27;20103;-48
2020/12/02 08:40:56;;;;;;;42.05;15.52;;;-6.40;99.90;;;;;;4249413;27;20039;-40
2020/12/02 08:43:22;;;;;;;51.63;18.00;;;-6.30;99.90;;;;;;4256347;27;20531;-41
2020/12/02 08:45:24;;;;;;;51.30;19.15;;;-6.30;99.90;;;;;;4257720;27;20022;-42
2020/12/02 08:47:25;;;;;;;48.92;18.70;;;-6.30;99.90;;;;;;4255603;27;20523;-49
2020/12/02 08:49:31;;;;;;;49.35;18.23;;;-6.30;99.90;;;;;;4258091;27;20038;-43
2020/12/02 08:51:32;;;;;;;46.05;16.15;;;-6.20;99.90;;;;;;4255261;27;20039;-55
2020/12/02 08:53:34;;;;;;;43.15;17.00;;;-6.10;99.90;;;;;;4257477;27;20034;-42
2020/12/02 08:55:35;;;;;;;46.55;17.58;;;-6.10;99.90;;;;;;4255653;27;20038;-49
2020/12/02 08:57:36;;;;;;;45.50;15.93;;;-6.10;99.90;;;;;;4257737;27;20412;-47
2020/12/02 08:59:37;;;;;;;57.58;19.25;;;-6.00;99.90;;;;;;4255650;27;20038;-48
2020/12/02 09:01:38;;;;;;;47.25;17.35;;;-5.80;99.90;;;;;;4258292;27;20368;-42
2020/12/02 09:03:39;;;;;;;46.92;17.40;;;-5.70;99.90;;;;;;4256052;27;20030;-43
2020/12/02 09:05:40;;;;;;;50.72;18.52;;;-5.80;99.90;;;;;;4258180;27;20068;-41
2020/12/02 09:07:42;;;;;;;44.88;17.02;;;-5.80;99.90;;;;;;4256214;27;20494;-38
2020/12/02 09:09:43;;;;;;;40.67;16.35;;;-5.80;99.90;;;;;;4254896;27;20035;-41
2020/12/02 09:11:44;;;;;;;48.70;16.83;;;-5.80;99.90;;;;;;4254306;27;20035;-40
2020/12/02 09:13:45;;;;;;;52.13;19.60;;;-5.80;99.90;;;;;;4255211;27;20106;-42
2020/12/02 09:15:46;;;;;;;43.75;16.08;;;-5.70;99.90;;;;;;4257380;27;20042;-38
2020/12/02 09:17:48;;;;;;;42.92;14.70;;;-5.70;99.90;;;;;;4255709;27;20038;-44
2020/12/02 09:19:50;;;;;;;51.25;18.02;;;-5.60;99.90;;;;;;4258074;27;20494;-39
2020/12/02 09:21:51;;;;;;;41.80;16.63;;;-5.60;99.90;;;;;;4256058;27;20083;-45
2020/12/02 09:23:53;;;;;;;51.15;18.25;;;-5.60;99.90;;;;;;4257242;27;20478;-42
2020/12/02 09:25:54;;;;;;;48.58;18.38;;;-5.50;99.90;;;;;;4256417;27;20038;-39
2020/12/02 09:27:56;;;;;;;56.58;19.80;;;-5.30;99.90;;;;;;4257384;27;20375;-43
2020/12/02 09:29:57;;;;;;;54.28;18.60;;;-5.20;99.90;;;;;;4256346;27;20087;-46
2020/12/02 09:31:59;;;;;;;52.92;18.30;;;-5.00;99.90;;;;;;4256825;27;20516;-38
2020/12/02 09:34:03;;;;;;;57.42;18.88;;;-5.00;99.90;;;;;;4256153;27;20068;-38
2020/12/02 09:36:05;;;;;;;56.38;20.00;;;-4.90;99.90;;;;;;4257738;27;20027;-43
2020/12/02 09:38:09;;;;;;;47.58;17.27;;;-4.70;99.90;;;;;;4256316;27;20026;-38
2020/12/02 09:40:13;;;;;;;49.45;18.73;;;-4.60;99.90;;;;;;4256510;27;20099;-41
2020/12/02 09:42:29;;;;;;;51.33;17.65;;;-4.60;99.90;;;;;;4255302;27;20043;-44
2020/12/02 09:44:40;;;;;;;43.40;17.48;;;-4.60;99.90;;;;;;4255204;27;20114;-48
2020/12/02 09:46:43;;;;;;;;;;;-4.60;99.90;;;;;;4255658;27;20019;-46
2020/12/02 09:48:45;;;;;;;40.05;15.10;;;-4.50;99.90;;;;;;4256215;27;19972;-45
2020/12/02 09:50:47;;;;;;;46.58;15.88;;;-4.40;99.90;;;;;;4256564;27;20470;-44
2020/12/02 09:52:49;;;;;;;40.30;15.73;;;-4.30;99.90;;;;;;4255963;27;20087;-42
2020/12/02 09:54:50;;;;;;;41.10;14.95;;;-4.40;99.90;;;;;;4255795;27;20042;-39
2020/12/02 09:56:54;;;;;;;48.03;17.70;;;-4.30;99.90;;;;;;4255884;27;20900;-42
2020/12/02 09:58:57;;;;;;;51.50;16.15;;;-4.30;99.90;;;;;;4255872;27;20107;-41
2020/12/02 10:01:03;;;;;;;44.17;17.52;;;-4.20;99.90;;;;;;4254659;27;20091;-42
2020/12/02 10:03:17;;;;;;;44.00;17.10;;;-4.20;99.90;;;;;;4256242;27;20030;-42
2020/12/02 10:05:55;;;;;;;47.60;17.05;;;-4.10;99.90;;;;;;4240426;27;20031;-44
2020/12/02 10:08:05;;;;;;;47.67;19.58;;;-3.90;99.90;;;;;;4239255;27;20402;-48
2020/12/02 10:10:11;;;;;;;45.97;16.67;;;-3.80;99.90;;;;;;4238833;27;20503;-43
2020/12/02 10:12:31;;;;;;;46.35;18.00;;;-3.70;99.90;;;;;;4239273;27;20843;-48
2020/12/02 10:15:03;;;;;;;44.15;18.40;;;-3.60;99.90;;;;;;4253210;27;20034;-45
2020/12/02 10:17:29;;;;;;;48.03;17.40;;;-3.40;99.90;;;;;;4253399;27;20099;-48
2020/12/02 10:19:56;;;;;;;60.53;24.13;;;-3.40;99.90;;;;;;4256532;27;20863;-41
2020/12/02 10:22:12;;;;;;;56.13;21.00;;;-3.30;99.90;;;;;;4255033;27;20022;-45
2020/12/02 10:24:21;;;;;;;47.08;18.85;;;-3.40;99.90;;;;;;4256068;27;20050;-47
2020/12/02 10:26:52;;;;;;;39.55;15.80;;;-3.30;99.90;;;;;;4254993;27;20498;-46
2020/12/02 10:29:23;;;;;;;41.20;15.15;;;-3.30;99.90;;;;;;4256090;27;20118;-43
2020/12/02 10:31:38;;;;;;;42.88;15.95;;;-3.40;99.90;;;;;;4254564;27;20083;-41
2020/12/02 10:34:18;;;;;;;38.97;16.05;;;-3.40;99.90;;;;;;4256728;27;20043;-46
2020/12/02 10:36:25;;;;;;;40.30;15.88;;;-3.40;99.90;;;;;;4186171;28;20690;-40
2020/12/02 10:38:40;;;;;;;40.35;15.68;;;-3.50;99.90;;;;;;4226600;27;20099;-44
2020/12/02 10:40:50;;;;;;;42.83;16.75;;;-3.50;99.90;;;;;;4255555;27;20031;-48